East Orange, NJ (07018)

12:39 AM EDT on July 27, 2016 (GMT -0400)
Brick Church | | Change Station

Elev 203 ft 40.76 °N, 74.22 °W | Updated 5 minutes ago

Mostly Cloudy
Mostly Cloudy
77.4 °F
Feels Like 79 °F
N
0.0
Wind Variable Wind from NE

Today
High -- | Low -- °F
--% Chance of Precip.
Yesterday
High -- | Low -- °F
Precip. -- in
Pressure 29.92 in
Visibility 10.0 miles
Clouds Mostly Cloudy 25000 ft
Heat Index 79 °F
Dew Point 62 °F
Humidity 60%
Rainfall 0.00 in
Snow Depth Not available.
5:49 AM 8:17 PM
Waning Gibbous, 47% visible
METAR KEWR 270351Z 34007KT 10SM BKN250 28/16 A2992 RMK AO2 SLP131 T02780156
Pressure 29.92 in
Visibility 10.0 miles
Clouds Mostly Cloudy 25000 ft
Heat Index 79 °F
Dew Point 62 °F
Humidity 60%
Rainfall 0.00 in
Snow Depth Not available.
5:49 AM 8:17 PM
Waning Gibbous, 47% visible
METAR KEWR 270351Z 34007KT 10SM BKN250 28/16 A2992 RMK AO2 SLP131 T02780156

10-Day Weather Forecast

Almanac

Astronomy

Jul. 27, 2016 Rise Set
Actual Time
Civil Twilight
Nautical Twilight
Astronomical Twilight
Moon
Length of Visible Light
Length of Day
Tomorrow will be .
, % of the Moon is Illuminated

Today's Extremes

State Highs State Lows

Community

WunderPhotos

Upload Photos

1,927,814 photos uploaded!

WunderBlog® & News

Nearby

Air Quality

  Air Quality AQ Index Pollutant
Not available.

Snow Depth

Station Depth Elevation

Earthquake Activity

City Distance Mag. Time & Date
Minimum magnitude displayed is 2.5.

Coastal Water Temperatures

Place Temperature

Stations

Nearby Weather Stations

Station Location Temp. Windchill Dew Point Humidity Wind Precip. Elev Updated Type
                   

Watches & Warnings

There are currently no watches in effect.